createdAt,value
2022-09-17T00:01:24.909Z,25.50
2022-09-17T00:03:55.836Z,25.50
2022-09-17T00:06:25.240Z,25.50
2022-09-17T00:08:54.583Z,25.40
2022-09-17T00:11:24.362Z,25.40
2022-09-17T00:13:53.522Z,25.40
2022-09-17T00:16:27.625Z,25.30
2022-09-17T00:18:56.486Z,25.40
2022-09-17T00:21:25.478Z,25.50
2022-09-17T00:23:57.262Z,25.50
2022-09-17T00:26:25.656Z,25.50
2022-09-17T00:28:54.922Z,25.60
2022-09-17T00:31:24.040Z,25.60
2022-09-17T00:33:53.878Z,25.50
2022-09-17T00:36:22.645Z,25.50
2022-09-17T00:38:51.685Z,25.50
2022-09-17T00:41:20.431Z,25.50
2022-09-17T00:43:49.758Z,25.50
2022-09-17T00:46:23.761Z,25.50
2022-09-17T00:48:54.683Z,25.50
2022-09-17T00:51:32.082Z,25.50
2022-09-17T00:54:01.821Z,25.50
2022-09-17T00:56:33.158Z,25.40
2022-09-17T00:59:02.184Z,25.40
2022-09-17T01:01:30.616Z,25.40
2022-09-17T01:04:00.404Z,25.40
2022-09-17T01:06:33.094Z,25.40
2022-09-17T01:09:08.017Z,25.40
2022-09-17T01:11:52.082Z,25.40
2022-09-17T01:14:24.261Z,25.40
2022-09-17T01:16:58.682Z,25.40
2022-09-17T01:19:44.021Z,25.40
2022-09-17T01:22:14.625Z,25.40
2022-09-17T01:25:00.451Z,25.40
2022-09-17T01:27:47.791Z,25.50
2022-09-17T01:30:18.313Z,25.50
2022-09-17T01:32:51.691Z,25.50
2022-09-17T01:35:22.893Z,25.50
2022-09-17T01:37:56.626Z,25.50
2022-09-17T01:40:27.615Z,25.50
2022-09-17T01:42:59.768Z,25.50
2022-09-17T01:45:31.550Z,25.50
2022-09-17T01:48:05.216Z,25.40
2022-09-17T01:50:34.802Z,25.40
2022-09-17T01:53:05.123Z,25.40
2022-09-17T01:55:36.665Z,25.40
2022-09-17T01:58:07.455Z,25.50
2022-09-17T02:00:36.594Z,25.50
2022-09-17T02:03:09.640Z,25.40
2022-09-17T02:05:40.817Z,25.40
2022-09-17T02:08:11.329Z,25.40
2022-09-17T02:10:41.221Z,25.40
2022-09-17T02:13:11.345Z,25.40
2022-09-17T02:15:42.054Z,25.40
2022-09-17T02:18:16.778Z,25.40
2022-09-17T02:20:48.016Z,25.30
2022-09-17T02:23:18.574Z,25.30
2022-09-17T02:25:51.332Z,25.40
2022-09-17T02:28:25.486Z,25.50
2022-09-17T02:30:53.871Z,25.50
2022-09-17T02:33:24.164Z,25.50
2022-09-17T02:35:52.727Z,25.40
2022-09-17T02:38:25.659Z,25.30
2022-09-17T02:40:58.315Z,25.40
2022-09-17T02:43:29.826Z,25.30
2022-09-17T02:46:07.201Z,25.20
2022-09-17T02:48:52.587Z,25.20
2022-09-17T02:51:29.633Z,25.20
2022-09-17T02:54:02.236Z,25.20
2022-09-17T02:56:35.308Z,25.20
2022-09-17T02:59:09.918Z,25.20
2022-09-17T03:01:41.499Z,25.20
2022-09-17T03:04:13.526Z,25.20
2022-09-17T03:06:42.189Z,25.20
2022-09-17T03:09:10.831Z,25.20
2022-09-17T03:11:39.234Z,25.10
2022-09-17T03:14:07.598Z,25.10
2022-09-17T03:16:36.003Z,25.10
2022-09-17T03:19:04.402Z,25.10
2022-09-17T03:21:34.207Z,25.10
2022-09-17T03:24:02.884Z,25.20
2022-09-17T03:26:31.234Z,25.20
2022-09-17T03:28:59.927Z,25.20
2022-09-17T03:31:29.326Z,25.20
2022-09-17T03:33:58.747Z,25.20
2022-09-17T03:36:27.231Z,25.20
2022-09-17T03:38:57.738Z,25.20
2022-09-17T03:41:26.472Z,25.20
2022-09-17T03:43:54.906Z,25.20
2022-09-17T03:46:23.427Z,25.10
2022-09-17T03:48:51.901Z,25.10
2022-09-17T03:51:20.298Z,25.00
2022-09-17T03:53:48.813Z,25.10
2022-09-17T03:56:18.645Z,25.10
2022-09-17T03:58:47.075Z,25.10
2022-09-17T04:01:15.474Z,25.20
2022-09-17T04:03:45.356Z,25.10
2022-09-17T04:06:13.753Z,25.10
2022-09-17T04:08:43.606Z,25.10
2022-09-17T04:11:11.997Z,25.10
2022-09-17T04:13:41.768Z,25.00
2022-09-17T04:16:10.183Z,25.00
2022-09-17T04:18:38.645Z,25.00
2022-09-17T04:21:07.278Z,25.00
2022-09-17T04:23:35.834Z,25.00
2022-09-17T04:26:04.637Z,24.90
2022-09-17T04:28:33.044Z,24.90
2022-09-17T04:31:03.010Z,25.00
2022-09-17T04:33:31.451Z,24.90
2022-09-17T04:35:59.891Z,24.90
2022-09-17T04:38:28.312Z,25.00
2022-09-17T04:40:57.412Z,24.90
2022-09-17T04:43:25.878Z,24.90
2022-09-17T04:45:54.273Z,24.90
2022-09-17T04:48:24.033Z,24.90
2022-09-17T04:50:52.653Z,24.90
2022-09-17T04:53:21.077Z,25.00
2022-09-17T04:55:49.515Z,25.00
2022-09-17T04:58:17.933Z,25.00
2022-09-17T05:00:46.311Z,25.00
2022-09-17T05:03:14.747Z,25.00
2022-09-17T05:05:44.590Z,25.00
2022-09-17T05:08:12.969Z,25.00
2022-09-17T05:10:41.303Z,24.90
2022-09-17T05:13:09.693Z,25.00
2022-09-17T05:15:38.078Z,25.00
2022-09-17T05:18:06.563Z,25.00
2022-09-17T05:20:34.950Z,25.10
2022-09-17T05:23:04.723Z,25.10
2022-09-17T05:25:33.051Z,25.20
2022-09-17T05:28:02.199Z,25.20
2022-09-17T05:30:31.318Z,25.20
2022-09-17T05:33:00.413Z,25.20
2022-09-17T05:35:29.046Z,25.20
2022-09-17T05:38:01.020Z,25.20
2022-09-17T05:40:31.519Z,25.20
2022-09-17T05:43:01.163Z,25.20
2022-09-17T05:45:29.817Z,25.20
2022-09-17T05:47:58.203Z,25.20
2022-09-17T05:50:27.048Z,25.20
2022-09-17T05:52:55.786Z,25.20
2022-09-17T05:55:24.701Z,25.30
2022-09-17T05:57:54.520Z,25.30
2022-09-17T06:00:22.946Z,25.30
2022-09-17T06:02:55.353Z,25.40
2022-09-17T06:05:23.826Z,25.40
2022-09-17T06:07:52.360Z,25.40
2022-09-17T06:10:20.731Z,25.50
2022-09-17T06:12:49.097Z,25.60
2022-09-17T06:15:18.991Z,25.60
2022-09-17T06:17:47.458Z,25.70
2022-09-17T06:20:16.390Z,25.70
2022-09-17T06:22:44.800Z,25.80
2022-09-17T06:25:13.469Z,25.80
2022-09-17T06:27:41.850Z,25.80
2022-09-17T06:30:10.514Z,25.90
2022-09-17T06:32:40.304Z,25.90
2022-09-17T06:35:09.432Z,25.90
2022-09-17T06:37:41.408Z,26.00
2022-09-17T06:40:10.492Z,26.10
2022-09-17T06:42:38.933Z,26.10
2022-09-17T06:45:11.179Z,26.10
2022-09-17T06:47:44.389Z,26.20
2022-09-17T06:50:12.699Z,26.20
2022-09-17T06:52:41.052Z,26.30
2022-09-17T06:55:09.854Z,26.30
2022-09-17T06:57:38.302Z,26.40
2022-09-17T07:00:07.476Z,26.40
2022-09-17T07:02:35.982Z,26.40
2022-09-17T07:05:06.362Z,26.50
2022-09-17T07:07:36.018Z,26.60
2022-09-17T07:10:04.433Z,26.50
2022-09-17T07:12:32.767Z,26.60
2022-09-17T07:15:01.108Z,26.60
2022-09-17T07:17:30.414Z,26.70
2022-09-17T07:19:58.786Z,26.70
2022-09-17T07:22:28.511Z,26.70
2022-09-17T07:24:56.867Z,26.80
2022-09-17T07:27:25.250Z,26.80
2022-09-17T07:29:53.603Z,26.80
2022-09-17T07:32:21.986Z,26.90
2022-09-17T07:34:50.487Z,27.00
2022-09-17T07:37:19.393Z,27.10
2022-09-17T07:39:49.295Z,27.20
2022-09-17T07:42:17.758Z,27.20
2022-09-17T07:44:46.727Z,27.30
2022-09-17T07:47:15.923Z,27.40
2022-09-17T07:49:44.237Z,27.40
2022-09-17T07:52:12.667Z,27.50
2022-09-17T07:54:41.132Z,27.60
2022-09-17T07:57:10.922Z,27.70
2022-09-17T07:59:39.337Z,27.80
2022-09-17T08:02:11.257Z,27.80
2022-09-17T08:04:39.694Z,27.70
2022-09-17T08:07:08.160Z,27.70
2022-09-17T08:09:36.534Z,27.70
2022-09-17T08:12:05.049Z,27.70
2022-09-17T08:14:34.798Z,27.70
2022-09-17T08:17:03.101Z,27.70
2022-09-17T08:19:32.892Z,27.80
2022-09-17T08:22:01.285Z,27.90
2022-09-17T08:24:29.858Z,28.00
2022-09-17T08:26:58.396Z,28.00
2022-09-17T08:29:26.752Z,28.10
2022-09-17T08:31:56.907Z,28.00
2022-09-17T08:34:25.248Z,27.90
2022-09-17T08:36:53.694Z,27.90
2022-09-17T08:39:22.064Z,27.90
2022-09-17T08:41:53.483Z,27.90
2022-09-17T08:44:24.549Z,27.90
2022-09-17T08:46:54.511Z,28.00
2022-09-17T08:49:31.140Z,27.90
2022-09-17T08:52:15.674Z,28.00
2022-09-17T08:54:46.208Z,28.00
2022-09-17T08:57:20.299Z,27.90
2022-09-17T08:59:51.004Z,27.90
2022-09-17T09:02:25.581Z,28.00
2022-09-17T09:05:04.342Z,28.00
2022-09-17T09:07:35.863Z,28.10
2022-09-17T09:10:12.561Z,28.20
2022-09-17T09:12:41.565Z,28.30
2022-09-17T09:15:18.816Z,28.50
2022-09-17T09:17:48.507Z,28.50
2022-09-17T09:20:19.082Z,28.60
2022-09-17T09:22:48.466Z,28.60
2022-09-17T09:25:23.229Z,28.70
2022-09-17T09:27:59.518Z,28.80
2022-09-17T09:30:30.064Z,28.80
2022-09-17T09:32:59.541Z,28.80
2022-09-17T09:35:30.507Z,28.90
2022-09-17T09:38:00.715Z,28.90
2022-09-17T09:40:35.199Z,28.90
2022-09-17T09:43:05.598Z,28.90
2022-09-17T09:45:50.717Z,28.90
2022-09-17T09:48:24.677Z,28.80
2022-09-17T09:51:06.499Z,28.90
2022-09-17T09:53:40.614Z,28.90
2022-09-17T09:56:16.116Z,29.00
2022-09-17T09:58:44.493Z,29.10
2022-09-17T10:01:14.175Z,29.10
2022-09-17T10:03:43.945Z,29.00
2022-09-17T10:06:14.460Z,28.90
2022-09-17T10:08:43.869Z,29.10
2022-09-17T10:11:21.244Z,29.10
2022-09-17T10:13:50.147Z,29.20
2022-09-17T10:16:19.571Z,29.30
2022-09-17T10:18:48.407Z,29.40
2022-09-17T10:21:22.753Z,29.40
2022-09-17T10:23:51.169Z,29.50
2022-09-17T10:26:24.724Z,29.50
2022-09-17T10:28:54.114Z,29.40
2022-09-17T10:31:24.012Z,29.30
2022-09-17T10:33:57.828Z,29.30
2022-09-17T10:36:40.697Z,29.40
2022-09-17T10:39:27.465Z,29.50
2022-09-17T10:41:56.169Z,29.40
2022-09-17T10:44:25.311Z,29.30
2022-09-17T10:46:53.843Z,29.30
2022-09-17T10:49:27.635Z,29.30
2022-09-17T10:52:06.553Z,29.30
2022-09-17T10:54:52.688Z,29.30
2022-09-17T10:57:27.073Z,29.20
2022-09-17T11:00:05.013Z,29.20
2022-09-17T11:02:41.206Z,29.30
2022-09-17T11:05:17.640Z,29.40
2022-09-17T11:07:49.361Z,29.40
2022-09-17T11:10:20.330Z,29.40
2022-09-17T11:12:57.575Z,29.50
2022-09-17T11:15:31.389Z,29.60
2022-09-17T11:18:15.227Z,29.70
2022-09-17T11:20:53.045Z,29.70
2022-09-17T11:23:41.316Z,29.60
2022-09-17T11:26:14.342Z,29.60
2022-09-17T11:28:50.548Z,29.60
2022-09-17T11:31:27.078Z,29.70
2022-09-17T11:34:13.107Z,29.60
2022-09-17T11:36:46.834Z,29.60
2022-09-17T11:39:18.381Z,29.70
2022-09-17T11:41:48.296Z,29.60
2022-09-17T11:44:18.816Z,29.50
2022-09-17T11:46:49.007Z,29.50
2022-09-17T11:49:22.143Z,29.60
2022-09-17T11:51:51.765Z,29.60
2022-09-17T11:54:24.146Z,29.60
2022-09-17T11:56:54.133Z,29.60
2022-09-17T11:59:26.391Z,29.60
2022-09-17T12:01:58.048Z,29.60
2022-09-17T12:04:32.818Z,29.60
2022-09-17T12:07:03.671Z,29.60
2022-09-17T12:09:38.029Z,29.60
2022-09-17T12:12:08.513Z,29.60
2022-09-17T12:14:42.994Z,29.70
2022-09-17T12:17:15.190Z,29.60
2022-09-17T12:19:45.115Z,29.70
2022-09-17T12:22:15.713Z,29.80
2022-09-17T12:24:45.562Z,29.80
2022-09-17T12:27:20.871Z,29.80
2022-09-17T12:30:06.569Z,29.80
2022-09-17T12:32:43.394Z,29.80
2022-09-17T12:35:18.068Z,29.80
2022-09-17T12:37:50.505Z,29.90
2022-09-17T12:40:28.424Z,29.90
2022-09-17T12:43:14.494Z,29.90
2022-09-17T12:45:50.914Z,30.00
2022-09-17T12:48:34.189Z,30.00
2022-09-17T12:51:08.812Z,29.90
2022-09-17T12:53:38.015Z,29.80
2022-09-17T12:56:18.065Z,29.90
2022-09-17T12:59:03.070Z,29.90
2022-09-17T13:01:33.437Z,29.90
2022-09-17T13:04:11.365Z,29.90
2022-09-17T13:06:51.375Z,29.90
2022-09-17T13:09:33.507Z,29.90
2022-09-17T13:12:07.678Z,29.80
2022-09-17T13:14:52.725Z,29.90
2022-09-17T13:17:24.814Z,27.50
2022-09-17T13:19:59.550Z,24.70
2022-09-17T13:22:33.133Z,23.40
2022-09-17T13:25:07.152Z,23.00
2022-09-17T13:27:38.344Z,22.70
2022-09-17T13:30:07.861Z,22.50
2022-09-17T13:33:00.362Z,22.40
2022-09-17T13:35:48.100Z,22.00
2022-09-17T13:38:20.283Z,21.60
2022-09-17T13:40:51.970Z,21.50
2022-09-17T13:43:27.009Z,21.40
2022-09-17T13:46:12.508Z,20.90
2022-09-17T13:48:49.637Z,20.80
2022-09-17T13:51:41.911Z,20.70
2022-09-17T13:54:11.599Z,20.80
2022-09-17T13:56:43.152Z,20.80
2022-09-17T13:59:14.885Z,20.50
2022-09-17T14:02:00.346Z,20.50
2022-09-17T14:04:33.451Z,20.50
2022-09-17T14:07:01.836Z,20.50
2022-09-17T14:09:39.034Z,20.40
2022-09-17T14:12:22.575Z,20.50
2022-09-17T14:14:53.367Z,20.40
2022-09-17T14:17:48.614Z,20.40
2022-09-17T14:20:17.151Z,20.50
2022-09-17T14:22:45.572Z,20.30
2022-09-17T14:25:17.694Z,20.30
2022-09-17T14:27:51.297Z,20.40
2022-09-17T14:30:21.667Z,20.30
2022-09-17T14:32:54.081Z,20.30
2022-09-17T14:35:24.166Z,20.10
2022-09-17T14:37:55.036Z,19.90
2022-09-17T14:40:24.303Z,19.80
2022-09-17T14:42:55.144Z,19.70
2022-09-17T14:45:26.699Z,19.60
2022-09-17T14:48:13.604Z,19.70
2022-09-17T14:50:42.026Z,19.70
2022-09-17T14:53:15.985Z,19.40
2022-09-17T14:55:45.259Z,19.20
2022-09-17T14:58:27.569Z,19.30
2022-09-17T15:00:57.481Z,19.30
2022-09-17T15:03:26.106Z,19.20
2022-09-17T15:05:54.889Z,19.40
2022-09-17T15:08:25.900Z,19.30
2022-09-17T15:10:57.607Z,19.20
2022-09-17T15:13:27.628Z,19.20
2022-09-17T15:16:02.607Z,18.90
2022-09-17T15:18:36.644Z,18.60
2022-09-17T15:21:07.941Z,18.70
2022-09-17T15:23:37.119Z,18.70
2022-09-17T15:26:05.698Z,18.70
2022-09-17T15:28:36.416Z,18.60
2022-09-17T15:31:07.052Z,18.50
2022-09-17T15:33:35.498Z,18.40
2022-09-17T15:36:14.489Z,18.60
2022-09-17T15:38:44.684Z,18.50
2022-09-17T15:41:31.195Z,18.40
2022-09-17T15:44:29.932Z,18.50
2022-09-17T15:47:32.859Z,18.40
2022-09-17T15:50:18.267Z,18.50
2022-09-17T15:52:47.542Z,18.40
2022-09-17T15:55:33.655Z,18.20
2022-09-17T15:58:04.563Z,18.30
2022-09-17T16:00:33.508Z,18.40
2022-09-17T16:04:03.489Z,18.30
2022-09-17T16:06:40.236Z,18.10
2022-09-17T16:09:42.046Z,17.90
2022-09-17T16:12:14.425Z,17.80
2022-09-17T16:14:48.638Z,17.90
2022-09-17T16:17:35.699Z,17.80
2022-09-17T16:20:10.553Z,17.70
2022-09-17T16:22:40.794Z,17.90
2022-09-17T16:25:09.868Z,18.00
2022-09-17T16:27:46.910Z,18.00
2022-09-17T16:30:18.211Z,18.10
2022-09-17T16:32:47.239Z,18.20
2022-09-17T16:35:17.842Z,18.10
2022-09-17T16:37:50.165Z,18.10
2022-09-17T16:40:19.652Z,18.00
2022-09-17T16:42:49.000Z,18.20
2022-09-17T16:45:17.899Z,18.20
2022-09-17T16:47:46.816Z,18.20
2022-09-17T16:50:16.141Z,18.20
2022-09-17T16:52:45.003Z,18.30
2022-09-17T16:55:17.241Z,18.30
2022-09-17T16:57:46.229Z,18.30
2022-09-17T17:00:19.073Z,18.30
2022-09-17T17:02:54.073Z,18.30
2022-09-17T17:05:23.446Z,18.20
2022-09-17T17:07:52.810Z,18.30
2022-09-17T17:10:23.222Z,18.40
2022-09-17T17:12:52.510Z,18.50
2022-09-17T17:15:21.757Z,18.50
2022-09-17T17:17:50.563Z,18.50
2022-09-17T17:20:19.506Z,18.60
2022-09-17T17:22:48.435Z,18.80
2022-09-17T17:25:17.298Z,19.00
2022-09-17T17:27:47.409Z,19.10
2022-09-17T17:30:17.631Z,19.20
2022-09-17T17:32:51.490Z,19.20
2022-09-17T17:35:20.770Z,19.20
2022-09-17T17:37:49.543Z,19.10
2022-09-17T17:40:18.565Z,18.90
2022-09-17T17:42:53.502Z,18.80
2022-09-17T17:45:22.265Z,18.60
2022-09-17T17:47:51.043Z,18.60
2022-09-17T17:50:19.843Z,18.60
2022-09-17T17:52:49.190Z,18.80
2022-09-17T17:55:18.265Z,19.00
2022-09-17T17:57:48.485Z,19.00
2022-09-17T18:00:18.383Z,19.10
2022-09-17T18:02:46.973Z,19.00
2022-09-17T18:05:15.529Z,18.90
2022-09-17T18:07:43.965Z,18.70
2022-09-17T18:10:13.184Z,18.60
2022-09-17T18:12:50.055Z,18.50
2022-09-17T18:15:20.155Z,18.40
2022-09-17T18:17:50.176Z,18.50
2022-09-17T18:20:19.506Z,18.60
2022-09-17T18:22:48.242Z,18.60
2022-09-17T18:25:17.026Z,18.50
2022-09-17T18:27:45.742Z,18.50
2022-09-17T18:30:14.863Z,18.60
2022-09-17T18:32:48.511Z,18.40
2022-09-17T18:35:20.023Z,18.40
2022-09-17T18:37:48.811Z,18.30
2022-09-17T18:40:17.790Z,18.20
2022-09-17T18:42:46.505Z,18.30
2022-09-17T18:45:15.331Z,18.40
2022-09-17T18:47:45.513Z,18.40
2022-09-17T18:50:14.472Z,18.30
2022-09-17T18:52:43.527Z,18.30
2022-09-17T18:55:12.318Z,18.40
2022-09-17T18:57:41.007Z,18.30
2022-09-17T19:00:11.459Z,18.30
2022-09-17T19:02:40.296Z,18.40
2022-09-17T19:05:10.867Z,18.30
2022-09-17T19:07:39.589Z,18.50
2022-09-17T19:10:09.269Z,18.30
2022-09-17T19:12:38.134Z,18.40
2022-09-17T19:15:08.554Z,18.50
2022-09-17T19:17:37.551Z,18.50
2022-09-17T19:20:06.904Z,18.60
2022-09-17T19:22:37.110Z,18.60
2022-09-17T19:25:06.704Z,18.70
2022-09-17T19:27:35.609Z,18.80
2022-09-17T19:30:04.529Z,18.80
2022-09-17T19:32:33.754Z,18.90
2022-09-17T19:35:02.541Z,18.90
2022-09-17T19:37:31.326Z,18.80
2022-09-17T19:40:01.960Z,19.00
2022-09-17T19:42:30.765Z,19.00
2022-09-17T19:44:59.655Z,18.80
2022-09-17T19:47:28.362Z,18.70
2022-09-17T19:49:57.411Z,18.50
2022-09-17T19:52:26.237Z,18.50
2022-09-17T19:54:55.117Z,18.60
2022-09-17T19:57:25.397Z,18.60
2022-09-17T19:59:54.423Z,18.60
2022-09-17T20:02:23.151Z,18.50
2022-09-17T20:04:51.953Z,18.40
2022-09-17T20:07:20.737Z,18.30
2022-09-17T20:09:49.487Z,18.40
2022-09-17T20:12:18.005Z,18.30
2022-09-17T20:14:47.833Z,18.30
2022-09-17T20:17:16.145Z,18.00
2022-09-17T20:19:44.540Z,18.10
2022-09-17T20:22:13.228Z,18.10
2022-09-17T20:24:41.985Z,18.20
2022-09-17T20:27:10.585Z,18.30
2022-09-17T20:29:38.992Z,18.40
2022-09-17T20:32:08.780Z,18.30
2022-09-17T20:34:37.178Z,18.30
2022-09-17T20:37:13.086Z,18.20
2022-09-17T20:39:42.105Z,18.20
2022-09-17T20:42:10.533Z,18.00
2022-09-17T20:44:38.858Z,18.20
2022-09-17T20:47:08.678Z,18.40
2022-09-17T20:49:37.017Z,18.30
2022-09-17T20:52:05.782Z,18.40
2022-09-17T20:54:34.207Z,18.50
2022-09-17T20:57:02.631Z,18.70
2022-09-17T20:59:50.554Z,18.70
2022-09-17T21:02:21.119Z,18.70
2022-09-17T21:04:51.209Z,18.60
2022-09-17T21:07:19.496Z,18.50
2022-09-17T21:09:47.943Z,18.30
2022-09-17T21:12:16.295Z,18.10
2022-09-17T21:14:44.741Z,18.00
2022-09-17T21:17:13.109Z,18.00
2022-09-17T21:19:42.944Z,18.10
2022-09-17T21:22:11.343Z,18.10
2022-09-17T21:24:39.756Z,18.10
2022-09-17T21:27:09.360Z,18.20
2022-09-17T21:29:37.808Z,18.30
2022-09-17T21:32:06.221Z,18.10
2022-09-17T21:34:34.616Z,18.00
2022-09-17T21:37:06.512Z,18.10
2022-09-17T21:39:35.208Z,18.20
2022-09-17T21:42:03.647Z,18.20
2022-09-17T21:44:32.186Z,18.30
2022-09-17T21:47:00.584Z,18.40
2022-09-17T21:49:28.980Z,18.60
2022-09-17T21:51:57.330Z,18.70
2022-09-17T21:54:27.117Z,18.80
2022-09-17T21:56:56.038Z,18.80
2022-09-17T21:59:24.802Z,18.80
2022-09-17T22:01:53.160Z,18.90
2022-09-17T22:04:22.565Z,19.00
2022-09-17T22:06:51.309Z,19.00
2022-09-17T22:09:20.578Z,18.90
2022-09-17T22:11:50.416Z,18.90
2022-09-17T22:14:20.088Z,18.90
2022-09-17T22:16:49.407Z,18.80
2022-09-17T22:19:18.764Z,18.80
2022-09-17T22:21:48.282Z,19.00
2022-09-17T22:24:17.307Z,18.90
2022-09-17T22:26:46.517Z,18.90
2022-09-17T22:29:17.137Z,18.80
2022-09-17T22:31:46.515Z,19.00
2022-09-17T22:34:16.085Z,19.20
2022-09-17T22:36:44.719Z,19.20
2022-09-17T22:39:13.097Z,19.20
2022-09-17T22:41:45.400Z,19.00
2022-09-17T22:44:15.122Z,19.00
2022-09-17T22:46:46.478Z,18.90
2022-09-17T22:49:15.573Z,18.90
2022-09-17T22:51:44.701Z,19.00
2022-09-17T22:54:13.672Z,19.20
2022-09-17T22:56:42.185Z,19.00
2022-09-17T22:59:10.787Z,19.00
2022-09-17T23:01:40.301Z,18.80
2022-09-17T23:04:10.168Z,18.60
2022-09-17T23:06:39.651Z,18.60
2022-09-17T23:09:08.095Z,18.70
2022-09-17T23:11:38.473Z,18.50
2022-09-17T23:14:08.575Z,18.40
2022-09-17T23:16:37.777Z,18.50
2022-09-17T23:19:06.185Z,18.30
2022-09-17T23:21:35.935Z,18.40
2022-09-17T23:24:04.401Z,18.60
2022-09-17T23:26:32.837Z,18.70
2022-09-17T23:29:04.869Z,18.60
2022-09-17T23:31:35.340Z,18.60
2022-09-17T23:34:04.821Z,18.60
2022-09-17T23:36:35.054Z,18.70
2022-09-17T23:39:06.506Z,18.60
2022-09-17T23:41:36.021Z,18.60
2022-09-17T23:44:07.635Z,18.70
2022-09-17T23:46:38.204Z,18.70
2022-09-17T23:49:07.235Z,18.70
2022-09-17T23:51:36.482Z,18.60
2022-09-17T23:54:07.298Z,18.40
2022-09-17T23:56:36.214Z,18.50
2022-09-17T23:59:04.985Z,18.60
